Detall de PIREP

Printer-friendly versionPDF version

[2017/03/04 08:46:00]
Flight IATA:CT1004
Pilot Number:012
Company ICAO:CAT
Aircraft Type:BE20/A
PAX:6
Departing Airport: LEBL
Destination Airport: EGLC
Alternate Airport:EGKK
Online: VATSIM
Route:OKABI UN861 FISTO UY156 ADABI UN858 VANAD UN874 BAMES UT191 PODEM UN873 SOMIL UY376 VESAN UL613 SOVAT
Flight Level:F320
No Slew and time accel
No pause
Crash detect
Detect pilot in Cockpit between each 30 and 45 minutes
08:46 Zero fuel Weight: 9694 Lbs, Fuel Weight: 1825 Lbs
08:46 VATSIM:LEBL 040830Z 25014KT 9999 FEW020 09/03 Q1002 NOSIG
08:46 VATSIM:EGLC 040820Z AUTO 23007KT 9999 NCD 09/06 Q0989
08:47 MWC 2017 BARCELONA CHARTER
08:49 Parking Brakes off
08:56 Take-off
08:56 Take off Weight: 11496 Lbs
08:56 Wind: 249º @ 014 Knots Heading: 244º
08:56 POS N41º 17´ 14´´ E002º 05´ 22´´
08:56 Flaps:1 at 125 Knots
08:56 Gear Up: 126 Knots
08:56 Flaps:0 at 127 Knots
09:11 Wind:288º@012 Knots Heading: 341º Ground Speed: 183 Knots Altitude 20554 ft
09:20 TOC
09:20 Fuel Weight: 1516 Lb
09:26 Wind:240º@025 Knots Heading: 347º Ground Speed: 259 Knots Altitude 31578 ft
09:41 Wind:186º@034 Knots Heading: 350º Ground Speed: 286 Knots Altitude 31581 ft
09:56 Wind:169º@054 Knots Heading: 343º Ground Speed: 314 Knots Altitude 31541 ft
10:11 Wind:177º@052 Knots Heading: 004º Ground Speed: 313 Knots Altitude 31479 ft
10:26 Wind:167º@066 Knots Heading: 007º Ground Speed: 326 Knots Altitude 31404 ft
10:41 Wind:175º@079 Knots Heading: 025º Ground Speed: 332 Knots Altitude 31348 ft
10:56 Wind:177º@076 Knots Heading: 055º Ground Speed: 303 Knots Altitude 31341 ft
11:09 TOD
11:09 Fuel Weight: 641 Lb
11:11 Wind:184º@087 Knots Heading: 332º Ground Speed: 376 Knots Altitude 29307 ft
11:26 Wind:207º@017 Knots Heading: 004º Ground Speed: 230 Knots Altitude 5656 ft
11:32 Flaps:1 at 173 Knots
11:32 Flaps:2 at 135 Knots
11:32 Gear Down: 129 Knots
11:37 TouchDown:Rate -569 ft/min Speed: 94 Knots
11:37 Flaps:1 at 30 Knots
11:37 Flaps:0 at 31 Knots
11:37 VATSIM:EGLC 041120Z AUTO 23012KT 9999 NCD 11/03 Q0989
11:37 Land
11:37 Wind:231º@012 Knots
11:37 Heading: 258º
11:37 Flight Duration: 02:41
11:37 Landing Weight: 10179 Lbs
11:37 POS N51º 30´ 19´´ E000º 02´ 58´´
11:38 Parking brakes on
11:38 Block to Block Duration: 02:49
11:38 Final Fuel: 480 Lbls
11:38 Spent Fuel: 1344 Lbls
11:38 Flight Length: 732 NM
11:38 TOD Land Length: 106 NM

Exportar CSV

Powered by Drupal - Modified by Danger4k